Flight Track Log - Related Links

Times and Time Zones

All times are in EDT time to prevent confusion due to time zone crossing. See the N775TB flight status page for this flight to view local times or setup timezone preferences in your user account.

Time Position Orientation Groundspeed Altitude Reporting Facility
EDT Latitude Longitude Course Direction KTS MPH feet Rate Location/Type
Sun 12:36:27 PM 40.0360 -88.4700 258° West 225 259 7,800  Level FlightAware ADS-B
Sun 12:36:42 PM 40.0330 -88.4930 260° West 243 280 8,000 400 Climbing FlightAware ADS-B
Sun 12:36:57 PM 40.0300 -88.5120 258° West 260 299 8,000  Level FlightAware ADS-B
Sun 12:37:27 PM 40.0220 -88.5620 258° West 278 320 8,000  Level FlightAware ADS-B
Sun 12:37:52 PM 40.0150 -88.6060 258° West 280 322 8,000 109 Level FlightAware ADS-B
Sun 12:38:22 PM 40.0080 -88.6530 259° West 278 320 8,100 109 Climbing FlightAware ADS-B
Sun 12:38:47 PM 40.0010 -88.6950 258° West 278 320 8,100 -120 Level FlightAware ADS-B
Sun 12:39:12 PM 39.9950 -88.7370 259° West 279 321 8,000 -100 Descending FlightAware ADS-B
Sun 12:39:47 PM 39.9860 -88.7940 258° West 278 320 8,000  Level FlightAware ADS-B
Sun 12:39:57 PM 39.9830 -88.8110 257° West 278 320 8,000  Level FlightAware ADS-B
Sun 12:40:27 PM 39.9760 -88.8590 259° West 277 319 8,000  Level FlightAware ADS-B
Sun 12:40:57 PM 39.9680 -88.9080 258° West 276 318 8,000  Level FlightAware ADS-B
Sun 12:41:17 PM 39.9630 -88.9400 258° West 276 318 8,000  Level FlightAware ADS-B
Sun 12:41:47 PM 39.9560 -88.9840 258° West 277 319 8,000  Level FlightAware ADS-B
Sun 12:42:17 PM 39.9470 -89.0390 258° West 277 319 8,000  Level FlightAware ADS-B
Sun 12:42:42 PM 39.9410 -89.0810 259° West 277 319 8,000  Level FlightAware ADS-B
Sun 12:43:12 PM 39.9330 -89.1290 258° West 277 319 8,000  Level FlightAware ADS-B
Sun 12:43:42 PM 39.9250 -89.1770 258° West 277 319 8,000 -120 Level FlightAware ADS-B
Sun 12:44:02 PM 39.9190 -89.2110 257° West 277 319 7,900 -133 Descending FlightAware ADS-B
Sun 12:44:27 PM 39.9130 -89.2470 258° West 277 319 7,900 -1,227 Level FlightAware ADS-B
Sun 12:45:30 PM 39.8558 -89.3028 258° West 270 311 6,100 -1,328 Descending Chicago Center
Sun 12:46:38 PM 39.7989 -89.3644 220° Southwest 230 265 5,000 -646 Descending Kansas City Center
Sun 12:47:40 PM 39.7547 -89.4039 214° Southwest 203 234 4,700 -484 Descending Kansas City Center
Sun 12:48:42 PM 39.7219 -89.4475 226° Southwest 187 215 4,000 -829 Descending Kansas City Center
Sun 12:49:43 PM 39.7408 -89.5025 294° West 179 206 3,000 -488 Descending Kansas City Center
Sun 12:50:45 PM 39.7644 -89.5386 310° West 148 170 3,000 -339 Level Kansas City Center
Sun 12:51:47 PM 39.7861 -89.5800 304° West 125 144 2,300 -629 Descending Kansas City Center
Sun 12:52:49 PM 39.8053 -89.6114 308° West 118 136 1,700 -532 Descending Kansas City Center
Sun 12:53:51 PM 39.8264 -89.6475 307° West 116 133 1,200 -484 Descending Kansas City Center

Login

Don't have an account? Register now (free) for customized features, flight alerts, and more!